createdAt,value
2022-12-23T00:01:28.537Z,46.22
2022-12-23T00:04:00.627Z,51.83
2022-12-23T00:06:29.434Z,56.17
2022-12-23T00:08:59.501Z,53.65
2022-12-23T00:11:29.143Z,60.63
2022-12-23T00:14:21.021Z,58.03
2022-12-23T00:16:51.475Z,55.70
2022-12-23T00:19:21.593Z,52.95
2022-12-23T00:21:50.083Z,56.58
2022-12-23T00:24:18.539Z,57.47
2022-12-23T00:26:46.937Z,50.50
2022-12-23T00:29:15.435Z,53.78
2022-12-23T00:31:43.955Z,50.10
2022-12-23T00:34:13.211Z,46.55
2022-12-23T00:36:43.424Z,50.20
2022-12-23T00:39:31.240Z,47.63
2022-12-23T00:42:17.114Z,45.13
2022-12-23T00:44:45.962Z,42.72
2022-12-23T00:47:36.160Z,40.58
2022-12-23T00:50:04.113Z,36.95
2022-12-23T00:52:33.858Z,37.90
2022-12-23T00:55:02.401Z,35.05
2022-12-23T00:57:31.303Z,38.20
2022-12-23T01:00:00.152Z,39.17
2022-12-23T01:02:45.363Z,38.03
2022-12-23T01:08:17.624Z,37.80
2022-12-23T01:10:46.227Z,37.63
2022-12-23T01:13:14.809Z,39.80
2022-12-23T01:15:43.314Z,35.10
2022-12-23T01:18:11.876Z,42.35
2022-12-23T01:20:40.611Z,36.55
2022-12-23T01:23:09.038Z,43.75
2022-12-23T01:25:38.923Z,43.30
2022-12-23T01:28:07.370Z,36.83
2022-12-23T01:30:35.771Z,46.00
2022-12-23T01:33:04.777Z,42.75
2022-12-23T01:35:33.179Z,42.07
2022-12-23T01:38:01.905Z,45.47
2022-12-23T01:40:36.507Z,48.30
2022-12-23T01:43:05.297Z,42.67
2022-12-23T01:45:34.561Z,42.20
2022-12-23T01:48:06.578Z,38.42
2022-12-23T01:50:39.058Z,36.28
2022-12-23T01:53:10.946Z,32.10
2022-12-23T01:55:45.374Z,32.40
2022-12-23T01:58:18.301Z,32.58
2022-12-23T02:01:04.384Z,32.20
2022-12-23T02:03:44.987Z,23.02
2022-12-23T02:06:39.685Z,22.88
2022-12-23T02:09:18.090Z,22.60
2022-12-23T02:12:21.783Z,21.83
2022-12-23T02:15:33.333Z,23.67
2022-12-23T02:18:37.114Z,18.40
2022-12-23T02:21:27.053Z,19.42
2022-12-23T02:24:46.686Z,20.73
2022-12-23T02:27:24.608Z,19.17
2022-12-23T02:30:34.967Z,19.58
2022-12-23T02:33:32.754Z,17.67
2022-12-23T02:36:21.294Z,18.20
2022-12-23T02:38:58.169Z,19.38
2022-12-23T02:41:33.366Z,23.00
2022-12-23T02:44:05.142Z,20.50
2022-12-23T02:46:38.826Z,18.63
2022-12-23T02:49:12.458Z,18.88
2022-12-23T02:51:45.679Z,21.55
2022-12-23T02:54:19.663Z,20.88
2022-12-23T02:56:51.675Z,20.40
2022-12-23T02:59:23.876Z,21.15
2022-12-23T03:01:55.312Z,16.75
2022-12-23T03:04:23.916Z,18.92
2022-12-23T03:06:54.968Z,19.50
2022-12-23T03:09:30.047Z,23.27
2022-12-23T03:12:06.272Z,19.52
2022-12-23T03:15:05.108Z,19.52
2022-12-23T03:17:49.633Z,20.52
2022-12-23T03:20:26.323Z,20.20
2022-12-23T03:23:03.535Z,20.33
2022-12-23T03:25:35.191Z,19.88
2022-12-23T03:28:12.209Z,17.95
2022-12-23T03:30:44.026Z,21.17
2022-12-23T03:33:17.445Z,19.30
2022-12-23T03:35:51.970Z,16.85
2022-12-23T03:38:20.688Z,17.45
2022-12-23T03:40:53.999Z,20.95
2022-12-23T03:43:26.723Z,15.82
2022-12-23T03:45:58.930Z,16.05
2022-12-23T03:48:35.021Z,16.88
2022-12-23T03:51:08.373Z,16.65
2022-12-23T03:53:40.317Z,18.17
2022-12-23T03:56:13.028Z,16.58
2022-12-23T03:58:48.295Z,16.02
2022-12-23T04:01:22.272Z,16.27
2022-12-23T04:03:59.439Z,15.25
2022-12-23T04:06:32.702Z,20.27
2022-12-23T04:09:02.486Z,16.85
2022-12-23T04:11:31.221Z,18.45
2022-12-23T04:13:59.786Z,14.52
2022-12-23T04:16:29.361Z,15.45
2022-12-23T04:18:59.222Z,18.83
2022-12-23T04:23:56.082Z,17.50
2022-12-23T04:26:24.460Z,19.17
2022-12-23T04:28:52.849Z,21.65
2022-12-23T04:31:21.636Z,22.40
2022-12-23T04:33:50.245Z,23.40
2022-12-23T04:36:20.042Z,18.05
2022-12-23T04:41:16.912Z,19.13
2022-12-23T04:43:47.851Z,18.60
2022-12-23T04:46:19.668Z,20.02
2022-12-23T04:48:48.196Z,17.77
2022-12-23T04:51:16.594Z,18.08
2022-12-23T04:53:46.544Z,23.27
2022-12-23T04:56:15.084Z,20.70
2022-12-23T04:58:43.657Z,14.98
2022-12-23T05:01:13.253Z,21.25
2022-12-23T05:03:42.528Z,22.08
2022-12-23T05:06:11.167Z,17.45
2022-12-23T05:08:39.640Z,20.70
2022-12-23T05:11:09.602Z,20.38
2022-12-23T05:13:38.043Z,20.10
2022-12-23T05:16:07.741Z,26.02
2022-12-23T05:18:36.634Z,17.23
2022-12-23T05:21:05.673Z,21.20
2022-12-23T05:23:34.285Z,21.08
2022-12-23T05:26:03.155Z,21.40
2022-12-23T05:28:32.980Z,23.05
2022-12-23T05:31:02.402Z,17.38
2022-12-23T05:33:31.101Z,22.75
2022-12-23T05:35:59.971Z,21.13
2022-12-23T05:38:29.075Z,19.23
2022-12-23T05:40:57.551Z,21.83
2022-12-23T05:43:25.998Z,23.13
2022-12-23T05:45:55.917Z,23.38
2022-12-23T05:48:24.881Z,24.10
2022-12-23T05:50:54.590Z,20.40
2022-12-23T05:53:24.593Z,22.98
2022-12-23T05:55:53.062Z,22.15
2022-12-23T05:58:21.713Z,24.10
2022-12-23T06:04:39.721Z,25.25
2022-12-23T06:07:08.154Z,24.80
2022-12-23T06:09:36.528Z,22.08
2022-12-23T06:12:05.160Z,20.05
2022-12-23T06:14:33.613Z,24.55
2022-12-23T06:17:02.227Z,21.33
2022-12-23T06:19:31.025Z,19.60
2022-12-23T06:22:00.832Z,20.75
2022-12-23T06:26:57.760Z,20.98
2022-12-23T06:29:26.343Z,20.85
2022-12-23T06:31:54.995Z,19.75
2022-12-23T06:34:23.626Z,20.75
2022-12-23T06:36:52.166Z,22.15
2022-12-23T06:39:22.066Z,24.80
2022-12-23T06:44:19.081Z,22.00
2022-12-23T06:46:47.493Z,24.77
2022-12-23T06:49:15.907Z,46.20
2022-12-23T06:51:44.404Z,38.90
2022-12-23T06:54:13.239Z,24.90
2022-12-23T06:56:43.045Z,33.65
2022-12-23T07:01:40.589Z,33.90
2022-12-23T07:04:10.398Z,29.33
2022-12-23T07:06:39.537Z,36.22
2022-12-23T07:09:08.227Z,52.75
2022-12-23T07:11:37.046Z,32.65
2022-12-23T07:14:06.831Z,35.75
2022-12-23T07:16:35.268Z,45.35
2022-12-23T07:19:03.875Z,32.83
2022-12-23T07:21:32.393Z,31.30
2022-12-23T07:24:01.041Z,26.55
2022-12-23T07:26:29.478Z,28.75
2022-12-23T07:28:58.112Z,24.20
2022-12-23T07:31:28.237Z,33.42
2022-12-23T07:33:56.881Z,28.20
2022-12-23T07:36:25.350Z,23.55
2022-12-23T07:38:53.856Z,23.45
2022-12-23T07:41:22.593Z,20.25
2022-12-23T07:43:51.122Z,21.63
2022-12-23T07:46:19.769Z,32.05
2022-12-23T07:48:49.705Z,23.15
2022-12-23T07:53:50.201Z,24.73
2022-12-23T07:56:18.680Z,23.70
2022-12-23T07:58:49.660Z,23.95
2022-12-23T08:01:19.174Z,23.42
2022-12-23T08:03:49.106Z,20.98
2022-12-23T08:06:18.387Z,17.80
2022-12-23T08:08:47.912Z,25.35
2022-12-23T08:11:17.996Z,25.58
2022-12-23T08:13:48.235Z,20.35
2022-12-23T08:16:16.620Z,22.42
2022-12-23T08:18:45.057Z,21.58
2022-12-23T08:21:18.969Z,21.38
2022-12-23T08:23:48.282Z,20.85
2022-12-23T08:26:18.780Z,22.77
2022-12-23T08:28:47.825Z,24.55
2022-12-23T08:31:19.182Z,19.90
2022-12-23T08:33:50.177Z,20.85
2022-12-23T08:36:23.642Z,18.52
2022-12-23T08:38:54.626Z,16.17
2022-12-23T08:41:25.383Z,15.60
2022-12-23T08:43:53.938Z,17.42
2022-12-23T08:46:23.145Z,21.73
2022-12-23T08:48:52.287Z,19.77
2022-12-23T08:51:23.659Z,16.43
2022-12-23T08:53:59.827Z,15.30
2022-12-23T08:56:31.545Z,13.20
2022-12-23T08:59:00.838Z,19.23
2022-12-23T09:01:31.254Z,14.48
2022-12-23T09:04:02.614Z,15.30
2022-12-23T09:06:34.513Z,16.33
2022-12-23T09:09:03.004Z,16.15
2022-12-23T09:11:31.745Z,15.88
2022-12-23T09:14:01.686Z,16.20
2022-12-23T09:16:31.178Z,12.63
2022-12-23T09:18:59.993Z,14.95
2022-12-23T09:21:28.519Z,15.57
2022-12-23T09:23:58.392Z,14.55
2022-12-23T09:28:56.661Z,9.93
2022-12-23T09:31:32.331Z,11.63
2022-12-23T09:34:04.811Z,13.35
2022-12-23T09:36:33.364Z,10.52
2022-12-23T09:39:03.706Z,7.50
2022-12-23T09:41:57.198Z,8.60
2022-12-23T09:44:50.953Z,9.70
2022-12-23T09:47:22.126Z,6.63
2022-12-23T09:49:53.662Z,11.20
2022-12-23T09:52:26.581Z,9.68
2022-12-23T09:54:56.981Z,11.80
2022-12-23T09:57:32.910Z,9.77
2022-12-23T10:00:09.155Z,13.23
2022-12-23T10:02:46.320Z,10.18
2022-12-23T10:05:24.435Z,11.20
2022-12-23T10:07:57.170Z,8.25
2022-12-23T10:10:33.905Z,7.90
2022-12-23T10:13:04.590Z,6.05
2022-12-23T10:15:38.327Z,6.80
2022-12-23T10:18:13.353Z,7.60
2022-12-23T10:20:47.990Z,18.90
2022-12-23T10:23:21.353Z,7.53
2022-12-23T10:25:53.496Z,8.40
2022-12-23T10:28:22.245Z,6.05
2022-12-23T10:31:39.294Z,6.10
2022-12-23T10:33:56.571Z,10.73
2022-12-23T10:36:35.600Z,6.82
2022-12-23T10:39:15.002Z,6.60
2022-12-23T10:41:54.903Z,5.75
2022-12-23T10:47:19.895Z,9.25
2022-12-23T10:49:57.091Z,6.30
2022-12-23T10:52:30.067Z,6.80
2022-12-23T10:54:59.075Z,16.85
2022-12-23T10:57:30.603Z,23.70
2022-12-23T10:59:59.179Z,8.65
2022-12-23T11:02:41.749Z,15.85
2022-12-23T11:05:15.743Z,6.88
2022-12-23T11:07:46.703Z,5.70
2022-12-23T11:10:19.611Z,5.25
2022-12-23T11:12:51.516Z,4.85
2022-12-23T11:15:29.136Z,4.68
2022-12-23T11:18:07.118Z,4.60
2022-12-23T11:20:37.577Z,4.88
2022-12-23T11:23:08.062Z,4.53
2022-12-23T11:25:38.546Z,5.75
2022-12-23T11:28:15.816Z,4.97
2022-12-23T11:30:56.575Z,6.03
2022-12-23T11:33:27.805Z,6.65
2022-12-23T11:36:04.848Z,5.47
2022-12-23T11:38:34.965Z,5.93
2022-12-23T11:41:05.187Z,5.53
2022-12-23T11:43:35.206Z,4.57
2022-12-23T11:46:18.270Z,3.97
2022-12-23T11:48:54.407Z,4.47
2022-12-23T11:51:27.639Z,4.20
2022-12-23T11:54:01.856Z,7.05
2022-12-23T11:56:36.398Z,5.85
2022-12-23T11:59:09.026Z,5.38
2022-12-23T12:01:39.425Z,5.78
2022-12-23T12:04:10.336Z,5.20
2022-12-23T12:06:47.203Z,6.10
2022-12-23T12:09:18.758Z,6.60
2022-12-23T12:11:51.746Z,7.63
2022-12-23T12:14:31.283Z,9.13
2022-12-23T12:17:04.899Z,4.85
2022-12-23T12:19:37.134Z,5.72
2022-12-23T12:22:13.725Z,4.63
2022-12-23T12:24:46.277Z,8.23
2022-12-23T12:27:14.866Z,11.65
2022-12-23T12:29:49.823Z,7.75
2022-12-23T12:32:24.175Z,8.95
2022-12-23T12:34:56.637Z,3.85
2022-12-23T12:37:36.215Z,3.90
2022-12-23T12:40:13.919Z,3.47
2022-12-23T12:42:45.297Z,4.78
2022-12-23T12:45:21.869Z,3.65
2022-12-23T12:48:10.272Z,4.70
2022-12-23T12:50:55.642Z,5.40
2022-12-23T12:53:24.998Z,3.72
2022-12-23T12:55:59.016Z,4.03
2022-12-23T12:58:27.587Z,6.60
2022-12-23T13:01:09.839Z,3.60
2022-12-23T13:04:05.397Z,3.50
2022-12-23T13:06:41.580Z,3.97
2022-12-23T13:09:21.293Z,4.70
2022-12-23T13:11:56.143Z,3.17
2022-12-23T13:14:33.992Z,4.40
2022-12-23T13:17:13.561Z,3.50
2022-12-23T13:19:48.999Z,2.33
2022-12-23T13:22:18.915Z,4.20
2022-12-23T13:27:28.211Z,13.50
2022-12-23T13:30:12.078Z,10.32
2022-12-23T13:33:11.183Z,8.63
2022-12-23T13:36:06.262Z,6.53
2022-12-23T13:38:52.897Z,4.53
2022-12-23T13:41:26.665Z,5.40
2022-12-23T13:43:59.474Z,5.10
2022-12-23T13:46:38.998Z,4.20
2022-12-23T13:49:15.587Z,3.85
2022-12-23T13:51:54.261Z,4.20
2022-12-23T13:54:33.950Z,4.75
2022-12-23T13:57:08.629Z,6.65
2022-12-23T13:59:41.027Z,6.00
2022-12-23T14:02:43.725Z,4.13
2022-12-23T14:05:33.242Z,6.00
2022-12-23T14:08:04.586Z,4.30
2022-12-23T14:10:33.502Z,5.85
2022-12-23T14:13:06.024Z,6.43
2022-12-23T14:15:48.798Z,5.15
2022-12-23T14:18:30.178Z,7.28
2022-12-23T14:21:10.695Z,5.97
2022-12-23T14:23:53.673Z,6.78
2022-12-23T14:26:48.998Z,7.93
2022-12-23T14:29:35.970Z,7.82
2022-12-23T14:32:04.589Z,13.40
2022-12-23T14:34:36.160Z,7.65
2022-12-23T14:37:36.936Z,8.75
2022-12-23T14:40:42.565Z,8.27
2022-12-23T14:43:32.475Z,8.35
2022-12-23T14:49:37.702Z,11.50
2022-12-23T14:51:57.708Z,12.20
2022-12-23T14:54:43.805Z,12.70
2022-12-23T14:57:24.962Z,12.30
2022-12-23T14:59:59.314Z,14.48
2022-12-23T15:02:34.554Z,16.17
2022-12-23T15:05:04.021Z,12.68
2022-12-23T15:07:35.887Z,13.93
2022-12-23T15:10:08.981Z,13.43
2022-12-23T15:12:39.698Z,21.92
2022-12-23T15:15:15.746Z,17.30
2022-12-23T15:17:44.639Z,19.30
2022-12-23T15:20:17.708Z,21.00
2022-12-23T15:22:48.120Z,19.80
2022-12-23T15:25:23.546Z,18.50
2022-12-23T15:28:00.919Z,18.40
2022-12-23T15:30:34.178Z,17.48
2022-12-23T15:33:16.073Z,22.50
2022-12-23T15:35:54.569Z,21.10
2022-12-23T15:38:27.225Z,24.55
2022-12-23T15:41:00.917Z,24.15
2022-12-23T15:43:29.730Z,28.05
2022-12-23T15:46:08.116Z,23.08
2022-12-23T15:48:37.965Z,22.95
2022-12-23T15:51:12.010Z,20.80
2022-12-23T15:53:43.096Z,20.60
2022-12-23T15:56:22.602Z,21.05
2022-12-23T15:58:51.973Z,20.92
2022-12-23T16:01:22.003Z,27.85
2022-12-23T16:03:53.246Z,38.22
2022-12-23T16:06:25.431Z,33.70
2022-12-23T16:08:58.752Z,38.58
2022-12-23T16:11:42.216Z,33.53
2022-12-23T16:14:31.974Z,26.98
2022-12-23T16:17:01.648Z,24.27
2022-12-23T16:19:40.699Z,52.50
2022-12-23T16:22:26.241Z,54.65
2022-12-23T16:25:00.397Z,47.22
2022-12-23T16:27:37.408Z,52.38
2022-12-23T16:30:12.789Z,46.42
2022-12-23T16:32:48.796Z,35.17
2022-12-23T16:35:35.957Z,37.55
2022-12-23T16:38:14.346Z,32.13
2022-12-23T16:40:43.965Z,36.17
2022-12-23T16:43:13.885Z,34.83
2022-12-23T16:48:18.153Z,35.75
2022-12-23T16:50:47.625Z,37.17
2022-12-23T16:53:16.246Z,35.00
2022-12-23T16:55:52.503Z,35.38
2022-12-23T16:58:25.024Z,31.58
2022-12-23T17:03:22.172Z,25.52
2022-12-23T17:05:50.938Z,30.33
2022-12-23T17:08:19.415Z,38.55
2022-12-23T17:10:48.166Z,35.88
2022-12-23T17:13:19.443Z,34.38
2022-12-23T17:15:49.366Z,31.63
2022-12-23T17:20:48.506Z,40.80
2022-12-23T17:23:27.722Z,31.85
2022-12-23T17:25:56.233Z,42.83
2022-12-23T17:28:29.211Z,37.08
2022-12-23T17:31:00.046Z,37.45
2022-12-23T17:33:32.148Z,31.95
2022-12-23T17:36:01.022Z,33.00
2022-12-23T17:38:29.966Z,39.25
2022-12-23T17:40:59.459Z,37.40
2022-12-23T17:43:28.374Z,33.83
2022-12-23T17:45:58.264Z,33.80
2022-12-23T17:51:00.299Z,41.17
2022-12-23T17:53:28.715Z,36.97
2022-12-23T17:55:57.535Z,58.28
2022-12-23T17:58:26.080Z,57.05
2022-12-23T18:00:54.711Z,77.80
2022-12-23T18:03:26.039Z,63.55
2022-12-23T18:06:01.737Z,58.35
2022-12-23T18:08:30.894Z,57.20
2022-12-23T18:11:00.468Z,55.05
2022-12-23T18:13:28.957Z,54.75
2022-12-23T18:15:57.648Z,67.38
2022-12-23T18:18:37.754Z,62.20
2022-12-23T18:21:12.506Z,48.13
2022-12-23T18:23:41.186Z,50.08
2022-12-23T18:26:13.830Z,45.55
2022-12-23T18:28:42.283Z,51.65
2022-12-23T18:31:16.466Z,45.85
2022-12-23T18:33:47.027Z,42.92
2022-12-23T18:36:23.490Z,49.42
2022-12-23T18:38:52.797Z,38.53
2022-12-23T18:41:22.099Z,44.75
2022-12-23T18:43:50.940Z,39.78
2022-12-23T18:46:20.666Z,49.17
2022-12-23T18:51:22.361Z,41.90
2022-12-23T18:53:51.066Z,48.60
2022-12-23T18:56:21.463Z,41.35
2022-12-23T18:58:50.044Z,42.70
2022-12-23T19:01:19.505Z,46.00
2022-12-23T19:03:50.157Z,44.78
2022-12-23T19:06:19.141Z,41.22
2022-12-23T19:08:47.701Z,45.87
2022-12-23T19:11:18.967Z,41.47
2022-12-23T19:13:47.636Z,46.22
2022-12-23T19:16:18.236Z,52.20
2022-12-23T19:18:47.782Z,43.83
2022-12-23T19:21:18.629Z,41.17
2022-12-23T19:23:47.438Z,37.33
2022-12-23T19:26:16.257Z,26.48
2022-12-23T19:28:44.953Z,26.80
2022-12-23T19:31:15.272Z,25.58
2022-12-23T19:33:45.444Z,26.92
2022-12-23T19:36:16.431Z,24.80
2022-12-23T19:38:47.431Z,21.90
2022-12-23T19:41:15.930Z,18.73
2022-12-23T19:43:45.971Z,16.27
2022-12-23T19:46:16.091Z,17.20
2022-12-23T19:48:44.522Z,21.80
2022-12-23T19:51:15.123Z,17.10
2022-12-23T19:53:44.698Z,15.57
2022-12-23T19:56:16.727Z,14.38
2022-12-23T19:58:45.623Z,17.50
2022-12-23T20:01:16.385Z,16.25
2022-12-23T20:03:46.376Z,19.92
2022-12-23T20:08:44.724Z,16.55
2022-12-23T20:11:16.972Z,16.07
2022-12-23T20:13:45.904Z,17.30
2022-12-23T20:16:14.651Z,16.38
2022-12-23T20:18:43.393Z,15.93
2022-12-23T20:21:12.099Z,16.98
2022-12-23T20:23:40.682Z,13.93
2022-12-23T20:26:09.468Z,14.57
2022-12-23T20:28:39.424Z,15.50
2022-12-23T20:31:09.818Z,12.50
2022-12-23T20:33:39.765Z,14.10
2022-12-23T20:38:37.191Z,14.35
2022-12-23T20:41:05.927Z,15.70
2022-12-23T20:43:34.737Z,12.75
2022-12-23T20:46:05.807Z,17.40
2022-12-23T20:48:35.350Z,14.52
2022-12-23T20:51:08.913Z,14.77
2022-12-23T20:53:37.679Z,13.10
2022-12-23T20:56:08.422Z,12.18
2022-12-23T20:58:57.634Z,16.90
2022-12-23T21:01:30.104Z,19.05
2022-12-23T21:04:01.125Z,15.65
2022-12-23T21:06:32.418Z,12.07
2022-12-23T21:09:04.098Z,17.48
2022-12-23T21:11:35.350Z,17.20
2022-12-23T21:14:07.026Z,17.05
2022-12-23T21:16:38.379Z,14.20
2022-12-23T21:19:07.992Z,15.20
2022-12-23T21:21:36.775Z,16.48
2022-12-23T21:24:05.921Z,11.35
2022-12-23T21:26:35.378Z,12.65
2022-12-23T21:29:05.572Z,13.02
2022-12-23T21:31:37.729Z,11.07
2022-12-23T21:34:06.794Z,12.35
2022-12-23T21:36:38.088Z,14.63
2022-12-23T21:39:07.643Z,10.70
2022-12-23T21:41:38.625Z,10.52
2022-12-23T21:44:07.588Z,8.73
2022-12-23T21:46:37.559Z,11.10
2022-12-23T21:49:06.102Z,7.60
2022-12-23T21:51:40.099Z,7.72
2022-12-23T21:54:10.779Z,7.25
2022-12-23T21:56:39.786Z,7.22
2022-12-23T21:59:11.580Z,8.07
2022-12-23T22:01:42.070Z,5.93
2022-12-23T22:04:10.683Z,8.95
2022-12-23T22:06:43.457Z,8.98
2022-12-23T22:09:13.538Z,11.43
2022-12-23T22:11:42.331Z,8.98
2022-12-23T22:14:14.564Z,7.78
2022-12-23T22:16:44.694Z,8.38
2022-12-23T22:19:13.884Z,6.95
2022-12-23T22:21:43.217Z,6.90
2022-12-23T22:24:12.407Z,11.32
2022-12-23T22:26:41.094Z,5.63
2022-12-23T22:29:10.957Z,7.15
2022-12-23T22:34:13.979Z,8.48
2022-12-23T22:36:42.772Z,7.75
2022-12-23T22:39:17.757Z,7.35
2022-12-23T22:41:48.894Z,9.35
2022-12-23T22:44:17.407Z,10.75
2022-12-23T22:46:46.146Z,12.35
2022-12-23T22:49:16.662Z,10.52
2022-12-23T22:51:45.613Z,10.10
2022-12-23T22:54:14.109Z,14.27
2022-12-23T22:56:42.725Z,10.02
2022-12-23T22:59:21.139Z,11.57
2022-12-23T23:01:51.266Z,12.98
2022-12-23T23:04:21.729Z,13.93
2022-12-23T23:06:50.328Z,12.55
2022-12-23T23:09:20.910Z,10.77
2022-12-23T23:11:49.766Z,11.95
2022-12-23T23:14:18.554Z,15.02
2022-12-23T23:16:47.372Z,12.88
2022-12-23T23:19:16.571Z,11.38
2022-12-23T23:21:47.006Z,12.82
2022-12-23T23:26:43.939Z,12.05
2022-12-23T23:29:12.535Z,11.65
2022-12-23T23:31:43.261Z,12.88
2022-12-23T23:34:13.808Z,13.98
2022-12-23T23:36:42.433Z,13.48
2022-12-23T23:39:14.350Z,10.32
2022-12-23T23:41:43.000Z,9.48
2022-12-23T23:44:12.591Z,6.93
2022-12-23T23:46:41.464Z,5.00
2022-12-23T23:49:09.957Z,6.03
2022-12-23T23:51:39.061Z,4.53
2022-12-23T23:54:07.796Z,5.57
2022-12-23T23:56:39.201Z,2.33
2022-12-23T23:59:08.946Z,3.72
